Aviation Digital Data Service (ADDS)

Output produced by METARs form (1739 UTC 27 May 2017)
found at http://www.aviationweather.gov/adds/metars/
 
FNBG 271500Z 29010KT 9999 FEW015 26/21 Q1014
TAF FNBG 271030Z 2712/2724 30008KT 9999 FEW018 
     TEMPO 2714/2718 24010KT FEW020 SCT023 
     BECMG 2719/2721 22006KT SCT020
       
FNCA 271600Z 20007KT 9999 SCT016 BKN080 28/23 Q1013
TAF FNCA 271030Z 2712/2724 24010KT 9999 SCT018 BKN050 
     PROB30 
     TEMPO 2714/2718 7000 -RADZ BKN020 FEW025CB 
     BECMG 2718/2720 16005KT BKN018 
     PROB30 
     TEMPO 2720/2724 8000 -DZ FEW010 BKN020
       
FNHU 271600Z 13008KT 9999 BKN018 23/13 Q1023
TAF COR FNHU 271045Z 2712/2724 08006KT 9999 SCT020 
     PROB30 
     TEMPO 2714/2718 14008KT 8000 -DZ FEW015 BKN020 
     BECMG 2720/2722 VRB03KT BKN018
       
TAF FNKU 271030Z 2712/2724 09006KT 9999 FEW018 
     PROB30 
     TEMPO 2714/2718 17008KT 8000 -DZ SCT020 
     BECMG 2720/2722 BKN018
       
FNLU 271700Z 23007KT 9999 SCT022 25/21 Q1013
TAF FNLU 271630Z 2718/2824 22008KT 9999 FEW022 SCT050 
     BECMG 2718/2720 FEW025 SCT030 
     TEMPO 2802/2806 16005KT 5000 BR FEW017 BKN023 
     BECMG 2809/2811 9000 SCT025 
     TEMPO 2813/2817 28010KT CAVOK
       
FNUE 271600Z 13005KT 9999 SCT030 27/17 Q1018
TAF FNUE 271045Z 2712/2724 12006KT 9999 FEW020 
     TEMPO 2713/2717 18008KT SCT025 
     BECMG 2719/2721 SCT020
       
TAF FNMA 271030Z 2712/2724 22010KT 6000 RA BKN012 OVC050 
     TEMPO 2712/2716 5000 -RADZ BKN010 FEW015CB OVC040 
     BECMG 2718/2720 31005KT 9000 BKN010 BKN030 
     PROB30 
     TEMPO 2720/2724 7000 -RA BKN010 FEW020CB
       
TAF FNME 271030Z 2712/2724 18008KT 9999 SCT022 
     TEMPO 2714/2720 12010KT FEW025 SCT050 
     BECMG 2720/2722 11006KT BKN030
       
TAF FNMO 271030Z 2712/2724 30010KT 9999 FEW015 
     TEMPO 2712/2718 22010KT CAVOK 
     BECMG 2718/2720 26008KT FEW010 BKN015
       
TAF FNGI 271045Z 2712/2724 06010KT 9999 FEW018 
     TEMPO 2713/2717 12005G15KT FEW020 
     BECMG 2718/2720 20008KT 8000 FEW015 BKN020
       
FNSA 271600Z 00000KT 9999 SCT030 31/14 Q1016
TAF FNSA 271030Z 2712/2724 11006KT 9999 FEW022 
     PROB30 
     TEMPO 2714/2719 17008KT SCT030 
     BECMG 2719/2721 8000 SCT020 BKN030
       
TAF FNSO 271030Z 2712/2724 22010KT 9999 SCT020 BKN040 
     PROB30 
     TEMPO 2714/2718 7000 -RADZ BKN020 FEW025CB 
     BECMG 2718/2720 16005KT BKN020 
     PROB30 
     TEMPO 2720/2724 VRB03KT 8000 -DZ FEW010 BKN020
       
FNSU 271500Z 20008KT 9999 BKN011 25/// Q1016
FNUG 271600Z 27006KT 9999 OVC017 23/19 Q1016